Terminal Aerodrome Forecast
Issued by NWS Goodland, KS

Home | Current Version | Previous Version | Text Only | Print | Product List | Glossary On
Versions: 1 2 3 4 5 6 7 8 9 10 11 12 13 14 15 16 17 18 19 20 21 22 23
218
FTUS43 KGLD 261203 AAA
TAFGLD
TAF AMD
KGLD 261203Z 2612/2712 22007KT 4SM BR OVC004
      TEMPO 2612/2613 SCT004
     FM261400 22006KT P6SM SCT004 SCT030
     FM261800 15005KT P6SM SCT040
     FM262100 11006KT P6SM SCT050
     FM270500 15008KT P6SM SCT040=

USA.gov is the U.S. government's official web portal to all federal, state and local government web resources and services.